ハバナ の空港の天気 - METARとTAF

ホセ・マルティ国際空港 ( MUHA / HAV ) - キューバ ハバナ
飛行場実況気象(Metar)
観測時間07/15 06:55 CDT (07/15 10:55 UTC)
風向・風速東 1m/s
視程8000m
天気現象
なし
気温23℃
湿度100%
気圧1016hPa
METARMUHA 151055Z 08002KT 8000 NSC 23/23 Q1016
過去の天気等 Google飛行場航空写真 Wunderground天気予報

過去48時間のMETAR

飛行場予報(TAF)
発表時間: 7/15 07:00 CDT (7/15 11:00 UTC)
予報対象時間: 15日8時 CDT ~ 16日8時 CDT
風向・風速不定 2m/s
視程9000m
少しの雲 雲底高度 910m
15日12時 CDT ~ 15日14時 CDT に徐々に
風向・風速東 5m/s
全天の4割程度の雲 雲底高度 910m
16日0時 CDT ~ 16日2時 CDT に徐々に
風向・風速不定 2m/s
少しの雲 雲底高度 910m
MUHA 151100Z 1512/1612 VRB03KT 9000 FEW030
BECMG 1516/1518 08010KT SCT030
BECMG 1604/1606 VRB03KT FEW030